Time;durP1;ratioP1;P1;durP2;ratioP2;P2;SDS_P1;SDS_P2;PMS_P1;PMS_P2;Temp;Humidity;BMP_temperature;BMP_pressure;BME280_temperature;BME280_humidity;BME280_pressure;Samples;Min_cycle;Max_cycle;Signal;HPM_P1;HPM_P2
2023/06/19 00:18:06;;;;;;;9.57;7.28;;;17.60;99.90;;;;;;4900235;29;20035;-84
2023/06/19 00:20:49;;;;;;;8.98;6.65;;;17.60;99.90;;;;;;4958417;29;20051;-82
2023/06/19 00:26:46;;;;;;;10.55;6.80;;;17.20;99.90;;;;;;4927438;29;20040;-85
2023/06/19 00:33:53;;;;;;;9.95;6.95;;;16.80;99.90;;;;;;5230221;23;20034;-84
2023/06/19 00:36:39;;;;;;;9.15;7.30;;;16.60;99.90;;;;;;4925785;28;20054;-84
2023/06/19 00:42:20;;;;;;;10.63;7.72;;;16.60;99.90;;;;;;5098294;23;20027;-81
2023/06/19 00:45:05;;;;;;;10.80;6.80;;;16.60;99.90;;;;;;4939171;29;20059;-84
2023/06/19 00:47:52;;;;;;;9.82;7.07;;;16.70;99.90;;;;;;4908532;29;20084;-88
2023/06/19 00:50:23;;;;;;;12.80;7.68;;;16.80;99.90;;;;;;4940031;23;20060;-84
2023/06/19 00:53:07;;;;;;;11.30;7.47;;;17.00;99.90;;;;;;4931479;29;20092;-86
2023/06/19 01:00:08;;;;;;;8.32;6.72;;;16.90;99.90;;;;;;4933337;29;20074;-82
2023/06/19 01:05:28;;;;;;;10.07;7.72;;;17.40;99.90;;;;;;4914939;29;20078;-84
2023/06/19 01:08:29;;;;;;;10.38;7.35;;;17.40;99.90;;;;;;4912161;29;20377;-88
2023/06/19 01:17:25;;;;;;;10.98;7.97;;;16.80;99.90;;;;;;5213145;23;20035;-86
2023/06/19 01:20:10;;;;;;;10.68;7.60;;;16.50;99.90;;;;;;4903336;29;20056;-89
2023/06/19 01:23:51;;;;;;;12.40;7.70;;;16.80;99.90;;;;;;4945894;29;20438;-86
2023/06/19 01:33:57;;;;;;;10.45;8.00;;;16.90;99.90;;;;;;5468189;23;20023;-82
2023/06/19 01:40:35;;;;;;;11.57;7.85;;;16.70;99.90;;;;;;4942264;29;20019;-83
2023/06/19 01:43:05;;;;;;;12.65;8.18;;;16.80;99.90;;;;;;4946880;29;20729;-85
2023/06/19 01:45:46;;;;;;;10.18;8.05;;;16.80;99.90;;;;;;4922585;29;20043;-85
2023/06/19 01:48:15;;;;;;;10.30;7.72;;;16.90;99.90;;;;;;4930683;29;20036;-85
2023/06/19 01:50:47;;;;;;;16.13;8.55;;;16.90;99.90;;;;;;4914961;29;20039;-84
2023/06/19 01:53:20;;;;;;;12.07;8.65;;;16.80;99.90;;;;;;4906296;29;20648;-84
2023/06/19 01:56:02;;;;;;;13.50;8.18;;;16.70;99.90;;;;;;4924390;29;20040;-85
2023/06/19 01:58:44;;;;;;;12.75;7.50;;;16.80;99.90;;;;;;4939358;29;20057;-81
2023/06/19 02:01:25;;;;;;;10.77;8.18;;;16.70;99.90;;;;;;4903241;29;20095;-83
2023/06/19 02:04:07;;;;;;;11.05;8.00;;;16.80;99.90;;;;;;4946587;29;20059;-86
2023/06/19 02:06:48;;;;;;;10.48;8.40;;;16.80;99.90;;;;;;4933290;29;20031;-85
2023/06/19 02:09:16;;;;;;;8.90;7.10;;;16.80;99.90;;;;;;4957054;29;20043;-87
2023/06/19 02:11:54;;;;;;;10.60;7.70;;;16.70;99.90;;;;;;4903011;29;20040;-87
2023/06/19 02:15:17;;;;;;;12.65;8.55;;;16.50;99.90;;;;;;4943035;29;20059;-88
2023/06/19 02:18:02;;;;;;;10.02;7.90;;;16.60;99.90;;;;;;4949099;29;20091;-88
2023/06/19 02:20:44;;;;;;;11.65;7.63;;;16.60;99.90;;;;;;4930475;29;20122;-85
2023/06/19 02:23:27;;;;;;;9.63;7.57;;;16.60;99.90;;;;;;4939733;29;20054;-88
2023/06/19 02:26:08;;;;;;;12.05;7.28;;;16.70;99.90;;;;;;4918002;29;20035;-89
2023/06/19 02:28:53;;;;;;;11.65;7.55;;;16.50;99.90;;;;;;4940923;29;20059;-86
2023/06/19 02:31:42;;;;;;;9.88;7.80;;;16.30;99.90;;;;;;4915610;29;20059;-85
2023/06/19 02:34:30;;;;;;;10.90;8.20;;;16.40;99.90;;;;;;4926260;28;20149;-87
2023/06/19 02:37:11;;;;;;;9.50;7.85;;;16.30;99.90;;;;;;4923706;29;20043;-87
2023/06/19 02:39:53;;;;;;;11.00;7.60;;;16.40;99.90;;;;;;4964735;28;20524;-86
2023/06/19 02:42:21;;;;;;;10.85;7.65;;;16.30;99.90;;;;;;4917996;29;20607;-85
2023/06/19 02:44:51;;;;;;;11.27;7.53;;;16.40;99.90;;;;;;4939684;29;20043;-86
2023/06/19 02:47:35;;;;;;;9.45;7.97;;;16.40;99.90;;;;;;4927189;28;20035;-83
2023/06/19 02:50:11;;;;;;;9.73;7.47;;;16.40;99.90;;;;;;4954805;28;20043;-82
2023/06/19 02:52:52;;;;;;;9.80;7.82;;;16.50;99.90;;;;;;4965094;28;20465;-86
2023/06/19 02:55:19;;;;;;;12.02;9.13;;;16.60;99.90;;;;;;4948736;29;20452;-82
2023/06/19 02:57:47;;;;;;;10.85;8.20;;;16.60;99.90;;;;;;4948245;29;20082;-82
2023/06/19 03:00:15;;;;;;;11.98;8.18;;;16.50;99.90;;;;;;4946448;28;20067;-87
2023/06/19 03:02:48;;;;;;;11.73;8.52;;;16.40;99.90;;;;;;4943361;28;20042;-88
2023/06/19 03:05:32;;;;;;;14.02;8.55;;;16.50;99.90;;;;;;4947742;28;20038;-86
2023/06/19 03:08:10;;;;;;;10.52;8.15;;;16.60;99.90;;;;;;4939582;29;20043;-86
2023/06/19 03:10:38;;;;;;;12.98;7.85;;;16.60;99.90;;;;;;4931274;29;20497;-80
2023/06/19 03:13:08;;;;;;;9.60;8.05;;;16.60;99.90;;;;;;4961978;28;20043;-86
2023/06/19 03:15:49;;;;;;;11.32;7.90;;;16.70;99.90;;;;;;4949571;29;20130;-81
2023/06/19 03:18:16;;;;;;;13.23;7.85;;;16.70;99.90;;;;;;4948889;28;20043;-85
2023/06/19 03:20:44;;;;;;;11.85;8.48;;;16.70;99.90;;;;;;4933741;29;20043;-87
2023/06/19 03:23:16;;;;;;;12.80;8.10;;;16.70;99.90;;;;;;4946692;28;20040;-85
2023/06/19 03:25:45;;;;;;;10.20;7.90;;;16.60;99.90;;;;;;4952716;29;20050;-82
2023/06/19 03:28:26;;;;;;;11.23;9.23;;;16.50;99.90;;;;;;4924146;29;20048;-90
2023/06/19 03:31:07;;;;;;;13.35;9.10;;;16.40;99.90;;;;;;4941337;29;20047;-83
2023/06/19 03:33:35;;;;;;;16.65;9.18;;;16.40;99.90;;;;;;4958116;28;20059;-81
2023/06/19 03:36:04;;;;;;;13.43;9.15;;;16.40;99.90;;;;;;4963021;28;20074;-84
2023/06/19 03:38:31;;;;;;;13.35;9.50;;;16.40;99.90;;;;;;4949076;29;20437;-85
2023/06/19 03:40:59;;;;;;;14.30;9.40;;;16.40;99.90;;;;;;4966080;28;20065;-87
2023/06/19 03:43:30;;;;;;;12.38;9.40;;;16.30;99.90;;;;;;4966259;28;20035;-83
2023/06/19 03:46:11;;;;;;;10.82;8.10;;;16.50;99.90;;;;;;4915432;28;20084;-88
2023/06/19 03:48:50;;;;;;;12.38;8.43;;;16.50;99.90;;;;;;4948323;29;20107;-82
2023/06/19 03:51:33;;;;;;;12.05;8.13;;;16.40;99.90;;;;;;4952606;28;20041;-85
2023/06/19 03:54:32;;;;;;;12.50;8.82;;;16.20;99.90;;;;;;4949685;29;20051;-85
2023/06/19 03:57:03;;;;;;;13.45;8.73;;;16.10;99.90;;;;;;4956761;29;20051;-86
2023/06/19 03:59:45;;;;;;;11.32;9.13;;;16.10;99.90;;;;;;4920261;29;20039;-84
2023/06/19 04:02:53;;;;;;;15.45;8.90;;;16.30;99.90;;;;;;4933251;28;20055;-84
2023/06/19 04:05:34;;;;;;;11.05;8.80;;;16.40;99.90;;;;;;4936419;28;20066;-85
2023/06/19 04:08:28;;;;;;;10.48;8.27;;;16.20;99.90;;;;;;4945844;29;20063;-88
2023/06/19 04:11:03;;;;;;;13.60;8.20;;;16.30;99.90;;;;;;4960615;28;20039;-83
2023/06/19 04:13:47;;;;;;;9.70;8.05;;;16.30;99.90;;;;;;4928673;29;20445;-84
2023/06/19 04:19:35;;;;;;;14.50;8.90;;;16.70;99.90;;;;;;5688044;23;20059;-88
2023/06/19 04:22:05;;;;;;;12.80;9.52;;;16.80;99.90;;;;;;4935029;29;20071;-89
2023/06/19 04:24:32;;;;;;;11.98;9.25;;;16.90;99.90;;;;;;4933436;29;20047;-88
2023/06/19 04:27:48;;;;;;;15.05;9.55;;;16.70;99.90;;;;;;4937102;29;20055;-90
2023/06/19 04:30:39;;;;;;;14.18;9.07;;;16.80;99.90;;;;;;4945619;29;20055;-83
2023/06/19 04:33:08;;;;;;;12.27;9.07;;;16.90;99.90;;;;;;4946234;29;20131;-86
2023/06/19 04:35:40;;;;;;;13.32;9.30;;;16.90;99.90;;;;;;4928282;29;20047;-75
2023/06/19 04:38:08;;;;;;;83.22;49.72;;;17.00;99.90;;;;;;4920498;29;20043;-77
2023/06/19 04:40:36;;;;;;;89.93;55.83;;;17.10;99.90;;;;;;4924244;29;20055;-74
2023/06/19 04:43:05;;;;;;;24.77;19.20;;;17.20;99.90;;;;;;4937114;29;20111;-76
2023/06/19 04:45:33;;;;;;;105.72;66.07;;;17.30;99.90;;;;;;4916451;29;20046;-77
2023/06/19 04:48:02;;;;;;;118.90;79.80;;;17.30;99.90;;;;;;4936429;29;20044;-77
2023/06/19 04:50:30;;;;;;;76.03;51.65;;;17.30;99.90;;;;;;4934723;29;20050;-75
2023/06/19 04:52:57;;;;;;;41.35;29.42;;;17.30;99.90;;;;;;4919844;29;20130;-77
2023/06/19 04:55:25;;;;;;;17.00;12.70;;;17.30;99.90;;;;;;4935862;29;20071;-76
2023/06/19 04:57:52;;;;;;;18.65;11.32;;;17.40;99.90;;;;;;4918100;29;20054;-75
2023/06/19 05:00:23;;;;;;;15.57;10.68;;;17.30;99.90;;;;;;4939287;29;20401;-74
2023/06/19 05:02:51;;;;;;;20.02;10.93;;;17.30;99.90;;;;;;4934872;29;20405;-75
2023/06/19 05:05:18;;;;;;;18.15;12.23;;;17.30;99.90;;;;;;4919585;29;20048;-77
2023/06/19 05:07:50;;;;;;;15.75;10.45;;;17.30;99.90;;;;;;4936000;29;20103;-75
2023/06/19 05:10:19;;;;;;;16.60;11.32;;;17.40;99.90;;;;;;4932365;29;20116;-76
2023/06/19 05:12:46;;;;;;;14.95;10.43;;;17.40;99.90;;;;;;4918255;29;20047;-75
2023/06/19 05:15:13;;;;;;;16.40;10.23;;;17.50;99.90;;;;;;4919752;29;20067;-77
2023/06/19 05:17:41;;;;;;;15.60;10.82;;;17.60;99.90;;;;;;4929266;29;20122;-77
2023/06/19 05:20:09;;;;;;;15.75;10.70;;;17.50;99.90;;;;;;4939916;29;20047;-75
2023/06/19 05:22:37;;;;;;;15.88;9.65;;;17.60;99.90;;;;;;4948617;29;20056;-78
2023/06/19 05:25:04;;;;;;;16.23;9.60;;;17.60;99.90;;;;;;4903434;29;20139;-77
2023/06/19 05:27:32;;;;;;;14.10;9.55;;;17.50;99.90;;;;;;4920735;29;20052;-77
2023/06/19 05:30:00;;;;;;;17.70;10.07;;;17.70;99.90;;;;;;4917869;29;20059;-78
2023/06/19 05:32:28;;;;;;;12.93;9.40;;;17.80;99.90;;;;;;4901588;29;20095;-79
2023/06/19 05:34:56;;;;;;;17.55;9.70;;;17.90;99.90;;;;;;4936474;29;20485;-77
2023/06/19 05:37:26;;;;;;;13.52;9.93;;;17.90;99.90;;;;;;4937427;29;20418;-78
2023/06/19 05:39:54;;;;;;;13.75;9.77;;;18.10;99.90;;;;;;4936341;29;20098;-78
2023/06/19 05:42:22;;;;;;;17.48;9.77;;;18.10;99.90;;;;;;4938135;29;20047;-77
2023/06/19 05:44:49;;;;;;;13.00;9.45;;;18.30;99.90;;;;;;4934925;29;20446;-74
2023/06/19 05:47:19;;;;;;;17.17;10.43;;;18.30;99.90;;;;;;4942185;29;20044;-76
2023/06/19 05:49:47;;;;;;;12.95;9.20;;;18.30;99.90;;;;;;4916641;29;20040;-76
2023/06/19 05:52:14;;;;;;;14.63;9.63;;;18.30;99.90;;;;;;4934292;29;20047;-77
2023/06/19 05:54:42;;;;;;;13.18;9.52;;;18.40;99.90;;;;;;4936298;29;20103;-76
2023/06/19 05:57:09;;;;;;;16.73;9.68;;;18.50;99.90;;;;;;4934925;29;20050;-75
2023/06/19 05:59:36;;;;;;;15.18;8.98;;;18.60;99.90;;;;;;4923318;29;20272;-75
2023/06/19 06:02:05;;;;;;;18.58;9.45;;;18.70;99.90;;;;;;4918814;29;20847;-75
2023/06/19 06:04:49;;;;;;;13.38;9.45;;;18.70;99.90;;;;;;4938116;29;20466;-78
2023/06/19 06:07:49;;;;;;;17.50;10.70;;;18.80;99.90;;;;;;3924449;23;20059;-77
2023/06/19 06:10:17;;;;;;;15.98;9.88;;;18.80;99.90;;;;;;4934105;29;20107;-78
2023/06/19 06:12:44;;;;;;;15.23;9.52;;;18.90;99.90;;;;;;4935256;29;20181;-77
2023/06/19 06:15:11;;;;;;;13.95;9.20;;;19.00;99.90;;;;;;4934763;29;20114;-77
2023/06/19 06:17:39;;;;;;;12.13;8.85;;;19.00;99.90;;;;;;4936015;29;20115;-76
2023/06/19 06:20:12;;;;;;;14.65;9.35;;;19.00;99.90;;;;;;4919201;29;20064;-76
2023/06/19 06:22:41;;;;;;;13.30;8.80;;;19.20;99.90;;;;;;4936199;29;20051;-76
2023/06/19 06:25:10;;;;;;;13.20;9.18;;;19.20;99.90;;;;;;4929593;29;20413;-80
2023/06/19 06:28:17;;;;;;;12.48;8.90;;;19.30;99.90;;;;;;4917874;29;20059;-78
2023/06/19 06:30:45;;;;;;;14.70;10.18;;;19.40;99.90;;;;;;4919900;29;20056;-79
2023/06/19 06:33:15;;;;;;;12.40;8.55;;;19.50;99.90;;;;;;4905068;29;20499;-75
2023/06/19 06:39:33;;;;;;;176.35;107.13;;;19.70;99.90;;;;;;4877315;29;20071;-77
2023/06/19 06:42:00;;;;;;;342.38;204.43;;;19.80;99.90;;;;;;4876983;29;20541;-77
2023/06/19 06:44:28;;;;;;;45.50;37.00;;;19.90;99.90;;;;;;4901621;29;20132;-79
2023/06/19 06:46:55;;;;;;;18.13;13.85;;;20.10;99.90;;;;;;4884677;29;20144;-78
2023/06/19 06:49:23;;;;;;;12.57;9.52;;;20.20;99.90;;;;;;4906155;29;20067;-76
2023/06/19 06:51:50;;;;;;;13.40;8.65;;;20.30;99.90;;;;;;4884299;29;20538;-78
2023/06/19 06:54:19;;;;;;;12.63;7.57;;;20.40;99.90;;;;;;4899363;29;20111;-77
2023/06/19 06:56:48;;;;;;;11.90;7.15;;;20.50;99.90;;;;;;4903107;29;20048;-78
2023/06/19 06:59:15;;;;;;;12.55;7.70;;;20.60;99.90;;;;;;4909827;29;20048;-80
2023/06/19 07:01:42;;;;;;;11.45;7.68;;;20.70;99.90;;;;;;4885191;29;20166;-81
2023/06/19 07:04:11;;;;;;;9.95;7.50;;;20.80;99.90;;;;;;4904199;29;20045;-77
2023/06/19 07:06:41;;;;;;;11.38;8.13;;;20.90;99.90;;;;;;4925307;29;20489;-77
2023/06/19 07:17:27;;;;;;;9.35;6.57;;;21.20;99.90;;;;;;4838009;29;20073;-76
2023/06/19 07:19:57;;;;;;;9.75;5.93;;;21.30;99.90;;;;;;4837656;29;20054;-76
2023/06/19 07:22:24;;;;;;;43.63;24.13;;;21.60;99.90;;;;;;4916477;29;20502;-78
2023/06/19 07:24:52;;;;;;;18.35;13.95;;;21.90;99.90;;;;;;5006399;23;20048;-75
2023/06/19 07:27:19;;;;;;;10.88;7.50;;;21.80;99.90;;;;;;4895871;29;20040;-77
2023/06/19 07:29:46;;;;;;;8.35;5.90;;;21.90;99.90;;;;;;4902043;29;20051;-79
2023/06/19 07:32:14;;;;;;;8.48;5.30;;;21.90;99.90;;;;;;4905781;29;20036;-79
2023/06/19 07:34:43;;;;;;;6.85;4.65;;;22.10;99.90;;;;;;4904459;29;20118;-78
2023/06/19 07:37:17;;;;;;;6.75;4.50;;;22.20;98.70;;;;;;4903719;29;20044;-78
2023/06/19 07:39:46;;;;;;;9.82;5.00;;;22.10;98.90;;;;;;4908373;29;20460;-79
2023/06/19 07:42:14;;;;;;;9.07;5.22;;;22.20;98.60;;;;;;4909020;29;20045;-78
2023/06/19 07:44:42;;;;;;;6.93;5.25;;;22.20;98.20;;;;;;4907865;29;20041;-80
2023/06/19 07:48:42;;;;;;;8.52;4.90;;;22.30;97.90;;;;;;4846091;29;20047;-80
2023/06/19 07:51:23;;;;;;;13.55;9.32;;;22.40;97.30;;;;;;4903472;29;20042;-78
2023/06/19 07:53:58;;;;;;;8.98;6.57;;;22.60;97.40;;;;;;4903763;29;20499;-80
2023/06/19 07:57:09;;;;;;;18.58;9.23;;;22.70;97.10;;;;;;4892552;29;20029;-76
2023/06/19 07:59:36;;;;;;;11.20;6.57;;;22.80;96.80;;;;;;4898663;29;20456;-78
2023/06/19 08:03:25;;;;;;;9.93;5.60;;;22.70;96.90;;;;;;4896094;29;20060;-77
2023/06/19 08:09:04;;;;;;;6.75;4.90;;;23.00;95.80;;;;;;5029708;23;20052;-79
2023/06/19 08:11:37;;;;;;;8.80;5.65;;;23.00;95.50;;;;;;4895311;29;20067;-76
2023/06/19 08:15:02;;;;;;;7.93;5.25;;;23.10;95.30;;;;;;4898385;29;20052;-78
2023/06/19 08:17:49;;;;;;;13.65;6.57;;;23.20;94.60;;;;;;4934431;29;20028;-78
2023/06/19 08:20:19;;;;;;;7.43;4.72;;;23.50;95.20;;;;;;4890669;29;20514;-78
2023/06/19 08:23:01;;;;;;;7.43;4.57;;;23.60;95.10;;;;;;4921080;29;20135;-75
2023/06/19 08:25:32;;;;;;;6.72;4.38;;;23.70;93.60;;;;;;4917302;29;20446;-78
2023/06/19 08:28:00;;;;;;;7.22;4.35;;;23.60;94.00;;;;;;4921396;29;20111;-76
2023/06/19 08:31:34;;;;;;;5.72;4.10;;;23.80;92.90;;;;;;4927462;29;20060;-79
2023/06/19 08:34:24;;;;;;;8.55;4.68;;;23.60;91.90;;;;;;5013031;23;20033;31
2023/06/19 08:41:16;;;;;;;9.43;6.07;;;23.80;91.50;;;;;;4791641;29;20122;-77
2023/06/19 08:54:45;;;;;;;7.63;4.75;;;24.10;90.60;;;;;;4938268;28;20071;-79
2023/06/19 08:57:12;;;;;;;10.27;4.10;;;24.10;88.00;;;;;;4972816;28;20039;-78
2023/06/19 09:00:07;;;;;;;7.50;4.43;;;23.90;88.00;;;;;;4946557;29;20051;-80
2023/06/19 09:02:44;;;;;;;6.55;4.25;;;23.90;88.80;;;;;;4945542;29;20054;-79
2023/06/19 09:08:45;;;;;;;6.70;4.22;;;24.00;89.20;;;;;;4946358;29;20078;-81
2023/06/19 09:11:20;;;;;;;8.65;4.25;;;24.20;89.10;;;;;;4962931;28;20051;-80
2023/06/19 09:15:02;;;;;;;7.80;4.47;;;24.40;87.70;;;;;;4933720;23;20050;-78
2023/06/19 09:17:31;;;;;;;8.50;4.38;;;24.50;86.90;;;;;;4922030;29;20071;-80
2023/06/19 09:20:00;;;;;;;6.82;4.32;;;24.60;87.30;;;;;;4963681;23;20041;-78
2023/06/19 09:31:18;;;;;;;6.53;4.53;;;24.40;86.60;;;;;;4925954;23;20130;-79
2023/06/19 09:33:49;;;;;;;7.38;4.47;;;24.50;85.90;;;;;;4899975;29;20139;-76
2023/06/19 09:36:20;;;;;;;6.10;3.75;;;24.50;85.50;;;;;;4904264;29;20139;-79
2023/06/19 09:43:47;;;;;;;8.32;4.90;;;24.90;85.70;;;;;;4924641;29;20254;-79
2023/06/19 09:46:18;;;;;;;7.38;4.50;;;25.30;86.20;;;;;;4909943;29;20116;-80
2023/06/19 09:48:50;;;;;;;9.50;4.78;;;25.50;85.20;;;;;;4926097;29;20458;-79
2023/06/19 09:51:28;;;;;;;6.80;4.45;;;25.40;83.30;;;;;;4922337;29;20068;-79
2023/06/19 09:54:32;;;;;;;8.07;5.22;;;25.80;81.40;;;;;;4833398;29;20179;-79
2023/06/19 09:57:14;;;;;;;8.27;4.78;;;25.90;83.60;;;;;;4984234;23;20075;-78
2023/06/19 10:00:07;;;;;;;;;;;;;;;;;;;;;
2023/06/19 10:06:29;;;;;;;7.55;4.03;;;26.00;76.20;;;;;;5022552;23;20054;-80
2023/06/19 10:17:17;;;;;;;14.55;9.98;;;25.50;82.90;;;;;;4950519;23;20050;-79
2023/06/19 10:24:15;;;;;;;9.82;5.88;;;25.80;77.00;;;;;;4913633;29;20123;-79
2023/06/19 10:27:07;;;;;;;9.32;4.68;;;26.10;80.00;;;;;;4929502;23;20450;-81
2023/06/19 10:30:31;;;;;;;7.40;4.35;;;26.60;77.20;;;;;;4902404;29;20059;-78
2023/06/19 10:33:04;;;;;;;8.48;4.70;;;26.60;75.50;;;;;;4913801;29;20072;-80
2023/06/19 10:35:49;;;;;;;7.13;4.43;;;26.60;76.50;;;;;;4908627;29;20051;-84
2023/06/19 10:52:11;;;;;;;9.63;4.30;;;26.20;76.80;;;;;;5579728;23;20111;-78
2023/06/19 10:55:20;;;;;;;8.70;4.90;;;26.20;73.00;;;;;;4925464;29;20122;-78
2023/06/19 10:57:55;;;;;;;9.25;4.55;;;26.50;72.50;;;;;;4932836;29;20066;-78
2023/06/19 11:04:09;;;;;;;6.40;4.15;;;26.60;73.00;;;;;;5840017;23;20645;-78
2023/06/19 11:06:43;;;;;;;9.60;5.03;;;26.50;71.90;;;;;;4916530;29;20035;-76
2023/06/19 11:10:19;;;;;;;;;;;;;;;;;;;;;
2023/06/19 11:13:55;;;;;;;11.02;5.43;;;25.90;72.00;;;;;;4862056;29;20074;-80
2023/06/19 11:16:23;;;;;;;10.13;4.97;;;25.80;73.60;;;;;;4931272;23;20078;-76
2023/06/19 11:18:56;;;;;;;10.70;7.90;;;25.90;73.90;;;;;;4933019;29;20382;-78
2023/06/19 11:21:38;;;;;;;11.38;7.93;;;26.20;70.80;;;;;;4921689;29;20048;-78
2023/06/19 11:24:11;;;;;;;31.35;21.00;;;26.70;71.30;;;;;;4926136;29;20051;-77
2023/06/19 11:26:49;;;;;;;9.43;6.35;;;26.90;71.70;;;;;;4913528;29;20469;-79
2023/06/19 11:29:35;;;;;;;29.42;21.27;;;27.20;70.10;;;;;;4866498;29;20039;-76
2023/06/19 11:32:13;;;;;;;23.50;9.63;;;27.20;69.90;;;;;;4924050;29;20163;-77
2023/06/19 11:38:26;;;;;;;11.90;7.97;;;27.70;69.60;;;;;;4891658;27;20135;-80
2023/06/19 11:41:00;;;;;;;57.42;38.75;;;27.40;68.00;;;;;;4877061;29;20467;-77
2023/06/19 11:50:15;;;;;;;7.57;5.03;;;27.10;73.40;;;;;;3479611;23;20336;-77
2023/06/19 11:52:46;;;;;;;7.25;4.55;;;26.80;70.40;;;;;;4919160;29;20044;-76
2023/06/19 11:55:17;;;;;;;9.23;5.25;;;26.60;70.30;;;;;;5019606;23;20055;-75
2023/06/19 11:57:45;;;;;;;12.18;5.75;;;26.70;69.50;;;;;;4925571;23;20131;-77
2023/06/19 12:00:29;;;;;;;8.18;4.40;;;26.90;69.80;;;;;;5055639;23;20127;-76
2023/06/19 12:02:58;;;;;;;8.20;5.13;;;27.00;69.10;;;;;;4924083;29;20040;-76
2023/06/19 12:05:26;;;;;;;9.27;5.87;;;27.50;69.40;;;;;;4938015;23;20047;-79
2023/06/19 12:07:53;;;;;;;8.68;4.70;;;27.70;69.70;;;;;;4926763;29;20047;-76
2023/06/19 12:10:31;;;;;;;9.95;6.15;;;27.90;67.80;;;;;;4904350;29;20037;-78
2023/06/19 12:21:07;;;;;;;9.10;5.05;;;27.30;68.30;;;;;;4908393;29;20147;-75
2023/06/19 12:23:48;;;;;;;7.85;5.00;;;27.70;68.30;;;;;;4908755;29;20044;-76
2023/06/19 12:26:16;;;;;;;7.15;4.43;;;27.30;67.30;;;;;;4909918;29;20045;-75
2023/06/19 12:28:44;;;;;;;9.88;5.13;;;27.10;68.50;;;;;;4903497;29;20040;-76
2023/06/19 12:31:15;;;;;;;9.10;4.90;;;27.50;71.40;;;;;;4901752;29;20457;-75
2023/06/19 12:33:47;;;;;;;7.20;5.07;;;27.80;67.40;;;;;;4893720;29;20053;-76
2023/06/19 12:36:15;;;;;;;8.63;4.40;;;27.60;67.50;;;;;;4907926;29;20048;-79
2023/06/19 12:38:48;;;;;;;16.55;6.03;;;27.20;67.20;;;;;;4915029;29;20056;-82
2023/06/19 12:48:43;;;;;;;20.27;8.27;;;27.10;73.00;;;;;;4999519;23;20055;-81
2023/06/19 12:51:19;;;;;;;12.05;7.63;;;27.30;73.30;;;;;;4930468;29;20478;-79
2023/06/19 12:53:50;;;;;;;16.38;8.13;;;27.40;72.60;;;;;;4946223;29;20091;-76
2023/06/19 13:00:51;;;;;;;12.60;7.80;;;27.30;73.10;;;;;;4922525;29;20501;-78
2023/06/19 13:03:21;;;;;;;18.30;7.13;;;28.10;74.00;;;;;;4942206;29;20047;-78
2023/06/19 13:05:50;;;;;;;13.18;7.07;;;28.70;71.90;;;;;;4934403;29;20051;-79
2023/06/19 13:08:33;;;;;;;16.33;7.68;;;28.80;70.00;;;;;;4922718;29;20062;-80
2023/06/19 13:13:58;;;;;;;8.88;6.60;;;28.30;71.50;;;;;;5301276;23;20055;-80
2023/06/19 13:19:15;;;;;;;8.87;5.87;;;28.50;70.00;;;;;;4937354;23;20103;-79
2023/06/19 13:22:01;;;;;;;12.73;6.25;;;28.30;68.90;;;;;;5239829;23;20681;-76
2023/06/19 13:25:24;;;;;;;14.50;6.85;;;28.80;69.10;;;;;;4944420;29;20095;-79
2023/06/19 13:27:51;;;;;;;10.68;6.60;;;29.30;68.30;;;;;;4891201;29;20055;-76
2023/06/19 13:30:19;;;;;;;10.63;6.32;;;29.50;67.00;;;;;;4919174;29;20043;-77
2023/06/19 13:32:47;;;;;;;9.68;6.30;;;29.70;67.90;;;;;;4921425;29;20055;-79
2023/06/19 13:38:21;;;;;;;10.23;6.07;;;29.40;67.60;;;;;;4889043;29;20054;-79
2023/06/19 13:40:49;;;;;;;11.02;6.78;;;29.30;67.10;;;;;;4918387;29;20064;-77
2023/06/19 13:49:36;;;;;;;10.35;6.22;;;28.40;70.50;;;;;;4981951;23;20059;-80
2023/06/19 13:52:05;;;;;;;8.20;5.32;;;28.10;66.80;;;;;;4916487;29;20052;-79
2023/06/19 13:54:56;;;;;;;10.05;7.03;;;27.80;65.40;;;;;;4923250;29;20071;-78
2023/06/19 13:57:23;;;;;;;12.07;7.28;;;27.50;69.20;;;;;;4999006;23;20075;-76
2023/06/19 13:59:51;;;;;;;9.82;6.38;;;27.80;70.00;;;;;;4919372;29;20050;-76
2023/06/19 14:02:18;;;;;;;18.92;13.15;;;28.10;66.50;;;;;;4953597;28;20130;-76
2023/06/19 14:04:45;;;;;;;57.72;37.25;;;28.40;66.50;;;;;;4963327;28;20034;-76
2023/06/19 14:07:13;;;;;;;62.60;40.03;;;28.60;66.90;;;;;;4962532;28;20445;-74
2023/06/19 14:09:41;;;;;;;144.10;99.60;;;28.50;67.80;;;;;;4973997;28;20035;-75
2023/06/19 14:12:46;;;;;;;83.10;61.63;;;28.50;67.30;;;;;;4932554;28;20050;-77
2023/06/19 14:15:38;;;;;;;49.38;37.45;;;28.40;67.40;;;;;;4942701;28;20061;-74
2023/06/19 14:18:05;;;;;;;37.25;26.98;;;28.40;68.80;;;;;;4976951;28;20046;-79
2023/06/19 14:20:33;;;;;;;17.77;12.82;;;28.50;69.10;;;;;;4927511;28;20050;-76
2023/06/19 14:29:59;;;;;;;18.70;13.40;;;29.20;68.80;;;;;;4925195;23;20169;-76
2023/06/19 14:32:41;;;;;;;16.13;11.48;;;29.30;66.20;;;;;;4883354;29;20123;-77
2023/06/19 14:35:50;;;;;;;11.20;6.00;;;29.80;67.10;;;;;;5049345;23;20027;-74
2023/06/19 14:38:53;;;;;;;10.13;6.68;;;29.80;63.80;;;;;;4926415;29;20048;-76
2023/06/19 14:41:58;;;;;;;8.73;5.40;;;30.10;64.10;;;;;;4913703;28;20054;-76
2023/06/19 14:44:56;;;;;;;12.45;6.50;;;29.90;62.10;;;;;;5055559;23;20041;-77
2023/06/19 14:47:26;;;;;;;6.88;4.82;;;30.90;63.80;;;;;;4918263;29;20056;-80
2023/06/19 14:49:54;;;;;;;8.93;5.70;;;31.60;62.40;;;;;;4912486;29;20048;-77
2023/06/19 14:52:21;;;;;;;7.80;4.88;;;32.50;62.50;;;;;;4906941;29;20052;-78
2023/06/19 14:54:49;;;;;;;6.55;4.47;;;34.00;58.80;;;;;;4925230;29;20051;-78
2023/06/19 14:57:24;;;;;;;5.75;4.03;;;33.40;57.70;;;;;;4923671;29;20462;-75
2023/06/19 15:03:27;;;;;;;9.70;5.78;;;35.00;55.40;;;;;;4905542;29;19923;-75
2023/06/19 15:06:07;;;;;;;9.88;4.50;;;36.00;55.60;;;;;;4921096;29;20036;-77
2023/06/19 15:08:42;;;;;;;39.63;30.67;;;32.80;55.70;;;;;;4938663;29;20056;-76
2023/06/19 15:14:45;;;;;;;9.65;5.53;;;33.20;56.80;;;;;;4953747;23;20039;-76
2023/06/19 15:17:13;;;;;;;13.43;5.85;;;34.00;55.40;;;;;;4932183;29;20536;-76
2023/06/19 15:19:40;;;;;;;13.60;9.77;;;36.00;54.60;;;;;;4945606;29;20131;-76
2023/06/19 15:22:27;;;;;;;28.73;19.25;;;35.40;52.90;;;;;;4953902;29;20067;-76
2023/06/19 15:25:23;;;;;;;8.65;6.25;;;35.80;54.40;;;;;;4927751;29;20401;-77
2023/06/19 15:27:52;;;;;;;9.60;4.95;;;34.50;54.10;;;;;;4943823;29;20078;-76
2023/06/19 15:30:19;;;;;;;7.90;5.00;;;33.50;54.70;;;;;;4934748;29;20119;-78
2023/06/19 15:36:52;;;;;;;87.07;65.70;;;33.50;56.30;;;;;;4900113;29;20495;-75
2023/06/19 15:46:38;;;;;;;8.93;4.88;;;34.90;51.50;;;;;;4963040;23;20052;-75
2023/06/19 15:49:12;;;;;;;8.23;5.03;;;34.70;54.30;;;;;;4930277;29;20477;-76
2023/06/19 15:51:40;;;;;;;7.90;5.25;;;34.10;55.10;;;;;;4922447;29;20367;-75
2023/06/19 15:54:14;;;;;;;6.35;4.28;;;35.40;53.50;;;;;;4925475;29;20048;-74
2023/06/19 15:57:04;;;;;;;8.23;4.80;;;35.50;53.30;;;;;;4906960;29;20047;-76
2023/06/19 16:00:22;;;;;;;6.43;4.47;;;34.70;53.20;;;;;;4898153;29;20090;-77
2023/06/19 16:03:02;;;;;;;11.50;5.60;;;33.50;55.40;;;;;;4910025;29;20052;-77
2023/06/19 16:05:32;;;;;;;13.77;8.70;;;31.20;56.70;;;;;;4931197;29;20131;-77
2023/06/19 16:07:59;;;;;;;10.77;5.00;;;31.10;56.50;;;;;;4906181;29;20047;-74
2023/06/19 16:10:27;;;;;;;11.80;5.55;;;30.30;58.40;;;;;;4933758;29;20095;-77
2023/06/19 16:16:03;;;;;;;8.10;4.82;;;31.50;58.00;;;;;;4903922;29;20406;-76
2023/06/19 16:21:42;;;;;;;8.80;5.22;;;31.90;57.60;;;;;;5012485;23;20057;-74
2023/06/19 16:24:09;;;;;;;7.97;4.97;;;31.00;58.50;;;;;;4886554;29;20041;-74
2023/06/19 16:26:38;;;;;;;6.32;4.50;;;29.70;59.10;;;;;;4917979;29;20546;-74
2023/06/19 16:31:54;;;;;;;10.05;5.13;;;28.60;62.10;;;;;;5029535;23;20044;-77
2023/06/19 16:35:02;;;;;;;8.30;6.47;;;28.30;62.70;;;;;;4944160;29;20040;-80
2023/06/19 16:37:44;;;;;;;13.75;6.63;;;28.30;63.20;;;;;;4947983;29;20035;-80
2023/06/19 16:40:13;;;;;;;8.70;5.20;;;28.20;62.80;;;;;;4946079;29;20032;-79
2023/06/19 16:42:40;;;;;;;8.85;5.30;;;28.00;63.40;;;;;;4952611;29;20079;-81
2023/06/19 16:45:10;;;;;;;10.15;4.75;;;28.00;63.40;;;;;;4928176;29;20040;-78
2023/06/19 16:47:48;;;;;;;;;;;;;;;;;;;;;
2023/06/19 16:50:58;;;;;;;16.40;11.48;;;27.70;64.00;;;;;;4923397;29;20048;-76
2023/06/19 16:53:25;;;;;;;13.20;7.88;;;27.70;64.50;;;;;;4934452;29;20051;-74
2023/06/19 16:56:44;;;;;;;14.27;6.28;;;27.50;64.70;;;;;;4941799;29;20520;-76
2023/06/19 17:03:21;;;;;;;9.05;5.85;;;27.00;66.20;;;;;;4900986;29;20071;-76
2023/06/19 17:06:21;;;;;;;;;;;;;;;;;;;;;
2023/06/19 17:12:38;;;;;;;11.38;5.80;;;26.60;67.10;;;;;;4897510;29;20059;-75
2023/06/19 17:15:07;;;;;;;14.02;6.30;;;26.70;67.40;;;;;;4905703;29;20108;-76
2023/06/19 17:17:34;;;;;;;13.80;8.90;;;26.60;68.00;;;;;;4897957;29;20068;-78
2023/06/19 17:20:04;;;;;;;28.02;18.73;;;26.50;68.10;;;;;;4898387;29;20123;-76